sensor_id;sensor_type;location;lat;lon;timestamp;temperature;humidity
5689;DHT22;2869;50.432;8.680;2023-06-04T00:00:29;13.20;99.90
5689;DHT22;2869;50.432;8.680;2023-06-04T00:02:56;13.10;99.90
5689;DHT22;2869;50.432;8.680;2023-06-04T00:05:22;13.10;99.90
5689;DHT22;2869;50.432;8.680;2023-06-04T00:07:50;13.10;99.90
5689;DHT22;2869;50.432;8.680;2023-06-04T00:10:17;13.10;99.90
5689;DHT22;2869;50.432;8.680;2023-06-04T00:12:45;13.00;99.90
5689;DHT22;2869;50.432;8.680;2023-06-04T00:15:13;13.10;99.90
5689;DHT22;2869;50.432;8.680;2023-06-04T00:17:40;13.00;99.90
5689;DHT22;2869;50.432;8.680;2023-06-04T00:20:07;13.00;99.90
5689;DHT22;2869;50.432;8.680;2023-06-04T00:22:35;13.00;99.90
5689;DHT22;2869;50.432;8.680;2023-06-04T00:25:01;12.90;99.90
5689;DHT22;2869;50.432;8.680;2023-06-04T00:27:28;12.90;99.90
5689;DHT22;2869;50.432;8.680;2023-06-04T00:29:56;12.90;99.90
5689;DHT22;2869;50.432;8.680;2023-06-04T00:32:23;12.90;99.90
5689;DHT22;2869;50.432;8.680;2023-06-04T00:34:53;12.90;99.90
5689;DHT22;2869;50.432;8.680;2023-06-04T00:37:22;12.90;99.90
5689;DHT22;2869;50.432;8.680;2023-06-04T00:39:48;12.90;99.90
5689;DHT22;2869;50.432;8.680;2023-06-04T00:42:15;12.80;99.90
5689;DHT22;2869;50.432;8.680;2023-06-04T00:44:42;12.80;99.90
5689;DHT22;2869;50.432;8.680;2023-06-04T00:47:11;12.70;99.90
5689;DHT22;2869;50.432;8.680;2023-06-04T00:49:38;12.70;99.90
5689;DHT22;2869;50.432;8.680;2023-06-04T00:52:05;12.70;99.90
5689;DHT22;2869;50.432;8.680;2023-06-04T00:54:32;12.60;99.90
5689;DHT22;2869;50.432;8.680;2023-06-04T00:56:59;12.60;99.90
5689;DHT22;2869;50.432;8.680;2023-06-04T00:59:26;12.50;99.90
5689;DHT22;2869;50.432;8.680;2023-06-04T01:01:56;12.50;99.90
5689;DHT22;2869;50.432;8.680;2023-06-04T01:04:29;12.40;99.90
5689;DHT22;2869;50.432;8.680;2023-06-04T01:06:57;12.40;99.90
5689;DHT22;2869;50.432;8.680;2023-06-04T01:09:26;12.40;99.90
5689;DHT22;2869;50.432;8.680;2023-06-04T01:11:53;12.30;99.90
5689;DHT22;2869;50.432;8.680;2023-06-04T01:14:20;12.30;99.90
5689;DHT22;2869;50.432;8.680;2023-06-04T01:16:49;12.30;99.90
5689;DHT22;2869;50.432;8.680;2023-06-04T01:22:32;12.20;99.90
5689;DHT22;2869;50.432;8.680;2023-06-04T01:25:03;12.20;99.90
5689;DHT22;2869;50.432;8.680;2023-06-04T01:27:30;12.20;99.90
5689;DHT22;2869;50.432;8.680;2023-06-04T01:29:58;12.10;99.90
5689;DHT22;2869;50.432;8.680;2023-06-04T01:32:26;12.10;99.90
5689;DHT22;2869;50.432;8.680;2023-06-04T01:34:53;12.10;99.90
5689;DHT22;2869;50.432;8.680;2023-06-04T01:37:20;12.00;99.90
5689;DHT22;2869;50.432;8.680;2023-06-04T01:39:48;12.10;99.90
5689;DHT22;2869;50.432;8.680;2023-06-04T01:42:15;12.00;99.90
5689;DHT22;2869;50.432;8.680;2023-06-04T01:44:42;12.00;99.90
5689;DHT22;2869;50.432;8.680;2023-06-04T01:47:09;11.90;99.90
5689;DHT22;2869;50.432;8.680;2023-06-04T01:49:35;11.90;99.90
5689;DHT22;2869;50.432;8.680;2023-06-04T01:52:03;11.90;99.90
5689;DHT22;2869;50.432;8.680;2023-06-04T01:54:31;11.80;99.90
5689;DHT22;2869;50.432;8.680;2023-06-04T01:57:00;11.80;99.90
5689;DHT22;2869;50.432;8.680;2023-06-04T01:59:28;11.80;99.90
5689;DHT22;2869;50.432;8.680;2023-06-04T02:01:57;11.70;99.90
5689;DHT22;2869;50.432;8.680;2023-06-04T02:04:23;11.70;99.90
5689;DHT22;2869;50.432;8.680;2023-06-04T02:06:50;11.70;99.90
5689;DHT22;2869;50.432;8.680;2023-06-04T02:09:17;11.60;99.90
5689;DHT22;2869;50.432;8.680;2023-06-04T02:11:43;11.60;99.90
5689;DHT22;2869;50.432;8.680;2023-06-04T02:14:11;11.60;99.90
5689;DHT22;2869;50.432;8.680;2023-06-04T02:16:38;11.60;99.90
5689;DHT22;2869;50.432;8.680;2023-06-04T02:19:05;11.60;99.90
5689;DHT22;2869;50.432;8.680;2023-06-04T02:21:31;11.50;99.90
5689;DHT22;2869;50.432;8.680;2023-06-04T02:23:58;11.50;99.90
5689;DHT22;2869;50.432;8.680;2023-06-04T02:26:25;11.50;99.90
5689;DHT22;2869;50.432;8.680;2023-06-04T02:28:52;11.40;99.90
5689;DHT22;2869;50.432;8.680;2023-06-04T02:31:20;11.40;99.90
5689;DHT22;2869;50.432;8.680;2023-06-04T02:33:46;11.40;99.90
5689;DHT22;2869;50.432;8.680;2023-06-04T02:36:13;11.40;99.90
5689;DHT22;2869;50.432;8.680;2023-06-04T02:38:41;11.40;99.90
5689;DHT22;2869;50.432;8.680;2023-06-04T02:41:07;11.30;99.90
5689;DHT22;2869;50.432;8.680;2023-06-04T02:43:34;11.30;99.90
5689;DHT22;2869;50.432;8.680;2023-06-04T02:46:00;11.30;99.90
5689;DHT22;2869;50.432;8.680;2023-06-04T02:48:28;11.30;99.90
5689;DHT22;2869;50.432;8.680;2023-06-04T02:50:55;11.20;99.90
5689;DHT22;2869;50.432;8.680;2023-06-04T02:53:22;11.20;99.90
5689;DHT22;2869;50.432;8.680;2023-06-04T02:55:49;11.10;99.90
5689;DHT22;2869;50.432;8.680;2023-06-04T02:58:16;11.10;99.90
5689;DHT22;2869;50.432;8.680;2023-06-04T03:00:43;11.10;99.90
5689;DHT22;2869;50.432;8.680;2023-06-04T03:03:09;11.00;99.90
5689;DHT22;2869;50.432;8.680;2023-06-04T03:05:37;11.00;99.90
5689;DHT22;2869;50.432;8.680;2023-06-04T03:08:05;11.00;99.90
5689;DHT22;2869;50.432;8.680;2023-06-04T03:10:31;11.00;99.90
5689;DHT22;2869;50.432;8.680;2023-06-04T03:12:58;11.00;99.90
5689;DHT22;2869;50.432;8.680;2023-06-04T03:15:25;11.00;99.90
5689;DHT22;2869;50.432;8.680;2023-06-04T03:17:51;11.00;99.90
5689;DHT22;2869;50.432;8.680;2023-06-04T03:20:18;11.00;99.90
5689;DHT22;2869;50.432;8.680;2023-06-04T03:22:46;10.90;99.90
5689;DHT22;2869;50.432;8.680;2023-06-04T03:25:13;10.90;99.90
5689;DHT22;2869;50.432;8.680;2023-06-04T03:27:39;10.90;99.90
5689;DHT22;2869;50.432;8.680;2023-06-04T03:30:07;10.90;99.90
5689;DHT22;2869;50.432;8.680;2023-06-04T03:32:34;10.90;99.90
5689;DHT22;2869;50.432;8.680;2023-06-04T03:35:01;10.90;99.90
5689;DHT22;2869;50.432;8.680;2023-06-04T03:37:28;10.90;99.90
5689;DHT22;2869;50.432;8.680;2023-06-04T03:39:59;10.90;99.90
5689;DHT22;2869;50.432;8.680;2023-06-04T03:42:26;10.90;99.90
5689;DHT22;2869;50.432;8.680;2023-06-04T03:44:52;10.90;99.90
5689;DHT22;2869;50.432;8.680;2023-06-04T03:47:19;10.90;99.90
5689;DHT22;2869;50.432;8.680;2023-06-04T03:49:46;10.90;99.90
5689;DHT22;2869;50.432;8.680;2023-06-04T03:52:12;10.90;99.90
5689;DHT22;2869;50.432;8.680;2023-06-04T03:54:39;10.90;99.90
5689;DHT22;2869;50.432;8.680;2023-06-04T03:57:07;10.90;99.90
5689;DHT22;2869;50.432;8.680;2023-06-04T03:59:33;10.90;99.90
5689;DHT22;2869;50.432;8.680;2023-06-04T04:02:00;10.90;99.90
5689;DHT22;2869;50.432;8.680;2023-06-04T04:04:27;10.90;99.90
5689;DHT22;2869;50.432;8.680;2023-06-04T04:06:53;10.90;99.90
5689;DHT22;2869;50.432;8.680;2023-06-04T04:09:20;10.90;99.90
5689;DHT22;2869;50.432;8.680;2023-06-04T04:11:46;10.90;99.90
5689;DHT22;2869;50.432;8.680;2023-06-04T04:14:15;10.90;99.90
5689;DHT22;2869;50.432;8.680;2023-06-04T04:16:41;11.00;99.90
5689;DHT22;2869;50.432;8.680;2023-06-04T04:19:08;11.00;99.90
5689;DHT22;2869;50.432;8.680;2023-06-04T04:21:34;11.00;99.90
5689;DHT22;2869;50.432;8.680;2023-06-04T04:24:03;11.00;99.90
5689;DHT22;2869;50.432;8.680;2023-06-04T04:26:29;11.00;99.90
5689;DHT22;2869;50.432;8.680;2023-06-04T04:28:56;11.00;99.90
5689;DHT22;2869;50.432;8.680;2023-06-04T04:31:26;11.10;99.90
5689;DHT22;2869;50.432;8.680;2023-06-04T04:33:54;11.10;99.90
5689;DHT22;2869;50.432;8.680;2023-06-04T04:36:21;11.20;99.90
5689;DHT22;2869;50.432;8.680;2023-06-04T04:38:48;11.20;99.90
5689;DHT22;2869;50.432;8.680;2023-06-04T04:41:19;11.30;99.90
5689;DHT22;2869;50.432;8.680;2023-06-04T04:43:46;11.30;99.90
5689;DHT22;2869;50.432;8.680;2023-06-04T04:46:13;11.40;99.90
5689;DHT22;2869;50.432;8.680;2023-06-04T04:48:41;11.50;99.90
5689;DHT22;2869;50.432;8.680;2023-06-04T04:51:07;11.50;99.90
5689;DHT22;2869;50.432;8.680;2023-06-04T04:53:35;11.60;99.90
5689;DHT22;2869;50.432;8.680;2023-06-04T04:56:01;11.70;99.90
5689;DHT22;2869;50.432;8.680;2023-06-04T04:58:28;11.80;99.90
5689;DHT22;2869;50.432;8.680;2023-06-04T05:00:55;11.90;99.90
5689;DHT22;2869;50.432;8.680;2023-06-04T05:03:21;12.00;99.90
5689;DHT22;2869;50.432;8.680;2023-06-04T05:05:49;12.10;99.90
5689;DHT22;2869;50.432;8.680;2023-06-04T05:08:16;12.20;99.90
5689;DHT22;2869;50.432;8.680;2023-06-04T05:10:42;12.20;99.90
5689;DHT22;2869;50.432;8.680;2023-06-04T05:13:09;12.30;99.90
5689;DHT22;2869;50.432;8.680;2023-06-04T05:15:36;12.40;99.90
5689;DHT22;2869;50.432;8.680;2023-06-04T05:18:05;12.50;99.90
5689;DHT22;2869;50.432;8.680;2023-06-04T05:20:31;12.60;99.90
5689;DHT22;2869;50.432;8.680;2023-06-04T05:22:59;12.70;99.90
5689;DHT22;2869;50.432;8.680;2023-06-04T05:25:27;12.90;99.90
5689;DHT22;2869;50.432;8.680;2023-06-04T05:27:56;13.00;99.90
5689;DHT22;2869;50.432;8.680;2023-06-04T05:30:23;13.10;99.90
5689;DHT22;2869;50.432;8.680;2023-06-04T05:32:50;13.20;99.90
5689;DHT22;2869;50.432;8.680;2023-06-04T05:35:18;13.30;99.90
5689;DHT22;2869;50.432;8.680;2023-06-04T05:37:45;13.50;99.90
5689;DHT22;2869;50.432;8.680;2023-06-04T05:40:20;13.60;99.90
5689;DHT22;2869;50.432;8.680;2023-06-04T05:42:47;13.80;99.90
5689;DHT22;2869;50.432;8.680;2023-06-04T05:45:14;13.90;99.90
5689;DHT22;2869;50.432;8.680;2023-06-04T05:47:41;14.10;99.90
5689;DHT22;2869;50.432;8.680;2023-06-04T05:50:09;14.20;99.90
5689;DHT22;2869;50.432;8.680;2023-06-04T05:52:36;14.30;99.90
5689;DHT22;2869;50.432;8.680;2023-06-04T05:55:03;14.50;99.90
5689;DHT22;2869;50.432;8.680;2023-06-04T05:57:34;14.70;99.90
5689;DHT22;2869;50.432;8.680;2023-06-04T06:00:00;14.80;99.90
5689;DHT22;2869;50.432;8.680;2023-06-04T06:02:27;15.00;99.90
5689;DHT22;2869;50.432;8.680;2023-06-04T06:04:54;15.20;99.90
5689;DHT22;2869;50.432;8.680;2023-06-04T06:07:21;15.40;99.90
5689;DHT22;2869;50.432;8.680;2023-06-04T06:09:48;15.60;99.90
5689;DHT22;2869;50.432;8.680;2023-06-04T06:12:14;15.70;99.90
5689;DHT22;2869;50.432;8.680;2023-06-04T06:14:42;15.90;99.90
5689;DHT22;2869;50.432;8.680;2023-06-04T06:17:09;16.00;99.90
5689;DHT22;2869;50.432;8.680;2023-06-04T06:19:36;16.10;99.90
5689;DHT22;2869;50.432;8.680;2023-06-04T06:22:03;16.30;99.90
5689;DHT22;2869;50.432;8.680;2023-06-04T06:24:30;16.30;99.90
5689;DHT22;2869;50.432;8.680;2023-06-04T06:26:56;16.40;99.90
5689;DHT22;2869;50.432;8.680;2023-06-04T06:29:23;16.50;99.90
5689;DHT22;2869;50.432;8.680;2023-06-04T06:31:51;16.60;99.90
5689;DHT22;2869;50.432;8.680;2023-06-04T06:34:18;16.80;99.90
5689;DHT22;2869;50.432;8.680;2023-06-04T06:36:45;16.90;99.90
5689;DHT22;2869;50.432;8.680;2023-06-04T06:39:12;17.00;99.90
5689;DHT22;2869;50.432;8.680;2023-06-04T06:41:39;17.10;99.90
5689;DHT22;2869;50.432;8.680;2023-06-04T06:44:06;17.20;99.90
5689;DHT22;2869;50.432;8.680;2023-06-04T06:46:33;17.40;99.90
5689;DHT22;2869;50.432;8.680;2023-06-04T06:49:00;17.50;99.90
5689;DHT22;2869;50.432;8.680;2023-06-04T06:51:27;17.70;99.90
5689;DHT22;2869;50.432;8.680;2023-06-04T06:53:54;17.90;99.90
5689;DHT22;2869;50.432;8.680;2023-06-04T06:56:20;18.00;99.90
5689;DHT22;2869;50.432;8.680;2023-06-04T06:58:47;18.10;99.90
5689;DHT22;2869;50.432;8.680;2023-06-04T07:01:14;18.30;99.90
5689;DHT22;2869;50.432;8.680;2023-06-04T07:03:40;18.50;99.90
5689;DHT22;2869;50.432;8.680;2023-06-04T07:06:08;18.60;99.90
5689;DHT22;2869;50.432;8.680;2023-06-04T07:08:35;18.80;99.90
5689;DHT22;2869;50.432;8.680;2023-06-04T07:11:02;18.90;99.90
5689;DHT22;2869;50.432;8.680;2023-06-04T07:13:29;19.00;99.90
5689;DHT22;2869;50.432;8.680;2023-06-04T07:15:57;19.20;99.90
5689;DHT22;2869;50.432;8.680;2023-06-04T07:18:24;19.30;99.90
5689;DHT22;2869;50.432;8.680;2023-06-04T07:20:51;19.40;99.90
5689;DHT22;2869;50.432;8.680;2023-06-04T07:23:19;19.40;99.90
5689;DHT22;2869;50.432;8.680;2023-06-04T07:25:46;19.60;99.90
5689;DHT22;2869;50.432;8.680;2023-06-04T07:28:13;19.70;99.90
5689;DHT22;2869;50.432;8.680;2023-06-04T07:30:39;20.00;99.90
5689;DHT22;2869;50.432;8.680;2023-06-04T07:33:06;20.20;99.90
5689;DHT22;2869;50.432;8.680;2023-06-04T07:35:33;20.40;99.90
5689;DHT22;2869;50.432;8.680;2023-06-04T07:37:59;20.60;99.90
5689;DHT22;2869;50.432;8.680;2023-06-04T07:40:27;20.80;99.90
5689;DHT22;2869;50.432;8.680;2023-06-04T07:42:54;20.90;99.90
5689;DHT22;2869;50.432;8.680;2023-06-04T07:45:21;21.20;99.90
5689;DHT22;2869;50.432;8.680;2023-06-04T07:47:47;21.30;99.90
5689;DHT22;2869;50.432;8.680;2023-06-04T07:50:14;21.50;99.90
5689;DHT22;2869;50.432;8.680;2023-06-04T07:52:41;21.70;99.90
5689;DHT22;2869;50.432;8.680;2023-06-04T07:55:08;21.80;99.90
5689;DHT22;2869;50.432;8.680;2023-06-04T07:57:36;21.90;99.90
5689;DHT22;2869;50.432;8.680;2023-06-04T08:00:04;22.10;99.90
5689;DHT22;2869;50.432;8.680;2023-06-04T08:02:31;22.20;99.90
5689;DHT22;2869;50.432;8.680;2023-06-04T08:04:57;22.30;99.90
5689;DHT22;2869;50.432;8.680;2023-06-04T08:07:24;22.40;99.90
5689;DHT22;2869;50.432;8.680;2023-06-04T08:09:51;22.40;99.70
5689;DHT22;2869;50.432;8.680;2023-06-04T08:12:17;22.40;99.90
5689;DHT22;2869;50.432;8.680;2023-06-04T08:14:45;22.50;98.50
5689;DHT22;2869;50.432;8.680;2023-06-04T08:17:12;22.60;99.00
5689;DHT22;2869;50.432;8.680;2023-06-04T08:19:39;22.90;99.50
5689;DHT22;2869;50.432;8.680;2023-06-04T08:22:05;23.20;99.90
5689;DHT22;2869;50.432;8.680;2023-06-04T08:24:32;23.30;98.40
5689;DHT22;2869;50.432;8.680;2023-06-04T08:26:58;23.40;97.00
5689;DHT22;2869;50.432;8.680;2023-06-04T08:29:25;23.20;97.80
5689;DHT22;2869;50.432;8.680;2023-06-04T08:31:53;23.20;96.20
5689;DHT22;2869;50.432;8.680;2023-06-04T08:34:20;23.30;98.50
5689;DHT22;2869;50.432;8.680;2023-06-04T08:36:46;23.40;96.00
5689;DHT22;2869;50.432;8.680;2023-06-04T08:39:13;23.50;97.30
5689;DHT22;2869;50.432;8.680;2023-06-04T08:41:43;23.80;95.60
5689;DHT22;2869;50.432;8.680;2023-06-04T08:44:10;23.80;95.60
5689;DHT22;2869;50.432;8.680;2023-06-04T08:46:38;23.80;95.20
5689;DHT22;2869;50.432;8.680;2023-06-04T08:49:07;23.90;95.10
5689;DHT22;2869;50.432;8.680;2023-06-04T08:51:36;24.00;94.90
5689;DHT22;2869;50.432;8.680;2023-06-04T08:54:03;24.10;96.10
5689;DHT22;2869;50.432;8.680;2023-06-04T08:56:30;24.20;95.60
5689;DHT22;2869;50.432;8.680;2023-06-04T08:59:01;24.50;94.90
5689;DHT22;2869;50.432;8.680;2023-06-04T09:01:28;24.40;95.40
5689;DHT22;2869;50.432;8.680;2023-06-04T09:03:55;24.50;95.40
5689;DHT22;2869;50.432;8.680;2023-06-04T09:06:25;24.50;94.10
5689;DHT22;2869;50.432;8.680;2023-06-04T09:08:54;24.60;96.10
5689;DHT22;2869;50.432;8.680;2023-06-04T09:11:23;24.70;95.00
5689;DHT22;2869;50.432;8.680;2023-06-04T09:13:53;24.60;93.70
5689;DHT22;2869;50.432;8.680;2023-06-04T09:16:20;24.60;93.40
5689;DHT22;2869;50.432;8.680;2023-06-04T09:18:46;24.60;93.90
5689;DHT22;2869;50.432;8.680;2023-06-04T09:21:13;24.60;93.90
5689;DHT22;2869;50.432;8.680;2023-06-04T09:23:46;24.40;91.60
5689;DHT22;2869;50.432;8.680;2023-06-04T09:26:13;24.10;92.50
5689;DHT22;2869;50.432;8.680;2023-06-04T09:28:40;24.10;93.10
5689;DHT22;2869;50.432;8.680;2023-06-04T09:31:08;24.10;93.40
5689;DHT22;2869;50.432;8.680;2023-06-04T09:33:42;24.30;92.60
5689;DHT22;2869;50.432;8.680;2023-06-04T09:36:09;24.00;90.80
5689;DHT22;2869;50.432;8.680;2023-06-04T09:38:35;23.90;92.20
5689;DHT22;2869;50.432;8.680;2023-06-04T09:41:03;24.10;91.10
5689;DHT22;2869;50.432;8.680;2023-06-04T09:43:31;24.30;92.30
5689;DHT22;2869;50.432;8.680;2023-06-04T09:46:09;24.50;93.00
5689;DHT22;2869;50.432;8.680;2023-06-04T09:48:36;24.70;91.00
5689;DHT22;2869;50.432;8.680;2023-06-04T09:51:07;24.80;91.60
5689;DHT22;2869;50.432;8.680;2023-06-04T09:53:33;24.80;91.40
5689;DHT22;2869;50.432;8.680;2023-06-04T09:56:03;24.70;91.30
5689;DHT22;2869;50.432;8.680;2023-06-04T09:58:30;24.80;91.80
5689;DHT22;2869;50.432;8.680;2023-06-04T10:00:58;25.20;92.20
5689;DHT22;2869;50.432;8.680;2023-06-04T10:03:26;25.20;90.60
5689;DHT22;2869;50.432;8.680;2023-06-04T10:05:56;25.20;92.00
5689;DHT22;2869;50.432;8.680;2023-06-04T10:08:23;25.40;90.20
5689;DHT22;2869;50.432;8.680;2023-06-04T10:10:55;25.40;88.90
5689;DHT22;2869;50.432;8.680;2023-06-04T10:13:26;25.20;88.70
5689;DHT22;2869;50.432;8.680;2023-06-04T10:15:54;25.30;88.80
5689;DHT22;2869;50.432;8.680;2023-06-04T10:18:22;25.20;86.10
5689;DHT22;2869;50.432;8.680;2023-06-04T10:20:49;24.80;85.00
5689;DHT22;2869;50.432;8.680;2023-06-04T10:23:16;24.70;86.10
5689;DHT22;2869;50.432;8.680;2023-06-04T10:25:49;24.50;85.60
5689;DHT22;2869;50.432;8.680;2023-06-04T10:28:15;24.20;86.50
5689;DHT22;2869;50.432;8.680;2023-06-04T10:30:46;24.20;89.10
5689;DHT22;2869;50.432;8.680;2023-06-04T10:33:12;24.40;85.80
5689;DHT22;2869;50.432;8.680;2023-06-04T10:35:40;24.50;86.60
5689;DHT22;2869;50.432;8.680;2023-06-04T10:38:09;24.90;85.60
5689;DHT22;2869;50.432;8.680;2023-06-04T10:40:36;24.70;83.10
5689;DHT22;2869;50.432;8.680;2023-06-04T10:43:06;24.60;84.90
5689;DHT22;2869;50.432;8.680;2023-06-04T10:45:33;24.80;84.30
5689;DHT22;2869;50.432;8.680;2023-06-04T10:48:02;25.00;83.60
5689;DHT22;2869;50.432;8.680;2023-06-04T10:50:29;24.90;84.60
5689;DHT22;2869;50.432;8.680;2023-06-04T10:52:56;25.00;84.10
5689;DHT22;2869;50.432;8.680;2023-06-04T10:55:24;25.20;84.70
5689;DHT22;2869;50.432;8.680;2023-06-04T10:57:52;25.20;82.80
5689;DHT22;2869;50.432;8.680;2023-06-04T11:00:19;25.30;82.00
5689;DHT22;2869;50.432;8.680;2023-06-04T11:02:52;25.30;82.90
5689;DHT22;2869;50.432;8.680;2023-06-04T11:05:22;25.40;83.00
5689;DHT22;2869;50.432;8.680;2023-06-04T11:08:00;25.30;82.30
5689;DHT22;2869;50.432;8.680;2023-06-04T11:10:31;25.30;79.90
5689;DHT22;2869;50.432;8.680;2023-06-04T11:12:59;25.20;81.10
5689;DHT22;2869;50.432;8.680;2023-06-04T11:15:26;25.50;82.20
5689;DHT22;2869;50.432;8.680;2023-06-04T11:18:03;25.80;85.10
5689;DHT22;2869;50.432;8.680;2023-06-04T11:20:31;26.20;82.00
5689;DHT22;2869;50.432;8.680;2023-06-04T11:22:59;26.10;79.70
5689;DHT22;2869;50.432;8.680;2023-06-04T11:25:29;25.60;81.00
5689;DHT22;2869;50.432;8.680;2023-06-04T11:27:56;25.70;81.90
5689;DHT22;2869;50.432;8.680;2023-06-04T11:30:24;26.00;84.60
5689;DHT22;2869;50.432;8.680;2023-06-04T11:32:59;26.40;86.00
5689;DHT22;2869;50.432;8.680;2023-06-04T11:35:26;26.90;83.80
5689;DHT22;2869;50.432;8.680;2023-06-04T11:37:55;27.20;80.80
5689;DHT22;2869;50.432;8.680;2023-06-04T11:40:22;27.50;81.50
5689;DHT22;2869;50.432;8.680;2023-06-04T11:42:50;27.50;82.40
5689;DHT22;2869;50.432;8.680;2023-06-04T11:45:18;27.30;81.00
5689;DHT22;2869;50.432;8.680;2023-06-04T11:47:47;27.30;79.50
5689;DHT22;2869;50.432;8.680;2023-06-04T11:50:13;27.10;78.10
5689;DHT22;2869;50.432;8.680;2023-06-04T11:52:40;27.00;81.00
5689;DHT22;2869;50.432;8.680;2023-06-04T11:55:09;27.00;78.80
5689;DHT22;2869;50.432;8.680;2023-06-04T11:57:36;27.00;81.70
5689;DHT22;2869;50.432;8.680;2023-06-04T12:00:05;27.10;79.20
5689;DHT22;2869;50.432;8.680;2023-06-04T12:02:34;26.90;76.30
5689;DHT22;2869;50.432;8.680;2023-06-04T12:05:11;26.80;79.80
5689;DHT22;2869;50.432;8.680;2023-06-04T12:07:37;27.10;77.30
5689;DHT22;2869;50.432;8.680;2023-06-04T12:10:06;27.30;80.50
5689;DHT22;2869;50.432;8.680;2023-06-04T12:12:34;27.40;77.70
5689;DHT22;2869;50.432;8.680;2023-06-04T12:15:01;27.40;76.70
5689;DHT22;2869;50.432;8.680;2023-06-04T12:17:29;27.20;75.80
5689;DHT22;2869;50.432;8.680;2023-06-04T12:19:55;26.90;76.80
5689;DHT22;2869;50.432;8.680;2023-06-04T12:22:24;26.60;76.20
5689;DHT22;2869;50.432;8.680;2023-06-04T12:24:52;26.60;79.60
5689;DHT22;2869;50.432;8.680;2023-06-04T12:27:20;26.90;79.70
5689;DHT22;2869;50.432;8.680;2023-06-04T12:29:58;27.10;77.20
5689;DHT22;2869;50.432;8.680;2023-06-04T12:32:26;27.30;81.80
5689;DHT22;2869;50.432;8.680;2023-06-04T12:34:53;27.40;75.50
5689;DHT22;2869;50.432;8.680;2023-06-04T12:37:22;27.40;78.40
5689;DHT22;2869;50.432;8.680;2023-06-04T12:39:50;27.50;76.40
5689;DHT22;2869;50.432;8.680;2023-06-04T12:42:18;27.30;78.60
5689;DHT22;2869;50.432;8.680;2023-06-04T12:44:45;27.40;77.10
5689;DHT22;2869;50.432;8.680;2023-06-04T12:47:13;27.60;80.50
5689;DHT22;2869;50.432;8.680;2023-06-04T12:49:40;27.90;79.80
5689;DHT22;2869;50.432;8.680;2023-06-04T12:52:06;27.90;74.30
5689;DHT22;2869;50.432;8.680;2023-06-04T12:54:33;27.80;74.50
5689;DHT22;2869;50.432;8.680;2023-06-04T12:57:00;27.90;74.30
5689;DHT22;2869;50.432;8.680;2023-06-04T12:59:27;27.40;74.90
5689;DHT22;2869;50.432;8.680;2023-06-04T13:01:54;27.10;74.70
5689;DHT22;2869;50.432;8.680;2023-06-04T13:04:22;27.20;79.00
5689;DHT22;2869;50.432;8.680;2023-06-04T13:06:50;27.50;78.00
5689;DHT22;2869;50.432;8.680;2023-06-04T13:09:17;27.60;78.20
5689;DHT22;2869;50.432;8.680;2023-06-04T13:11:46;27.70;75.40
5689;DHT22;2869;50.432;8.680;2023-06-04T13:14:12;27.50;75.20
5689;DHT22;2869;50.432;8.680;2023-06-04T13:16:39;27.40;74.10
5689;DHT22;2869;50.432;8.680;2023-06-04T13:19:05;27.40;76.00
5689;DHT22;2869;50.432;8.680;2023-06-04T13:21:34;27.50;76.00
5689;DHT22;2869;50.432;8.680;2023-06-04T13:24:00;27.60;76.00
5689;DHT22;2869;50.432;8.680;2023-06-04T13:26:27;27.60;76.90
5689;DHT22;2869;50.432;8.680;2023-06-04T13:28:54;27.70;77.80
5689;DHT22;2869;50.432;8.680;2023-06-04T13:31:20;27.80;76.20
5689;DHT22;2869;50.432;8.680;2023-06-04T13:33:47;27.80;71.80
5689;DHT22;2869;50.432;8.680;2023-06-04T13:36:14;27.70;73.40
5689;DHT22;2869;50.432;8.680;2023-06-04T13:38:42;27.80;79.10
5689;DHT22;2869;50.432;8.680;2023-06-04T13:41:08;27.90;75.20
5689;DHT22;2869;50.432;8.680;2023-06-04T13:43:35;27.90;76.80
5689;DHT22;2869;50.432;8.680;2023-06-04T13:46:02;27.90;75.00
5689;DHT22;2869;50.432;8.680;2023-06-04T13:48:28;28.00;73.60
5689;DHT22;2869;50.432;8.680;2023-06-04T13:50:55;27.70;72.30
5689;DHT22;2869;50.432;8.680;2023-06-04T13:53:21;27.40;72.50
5689;DHT22;2869;50.432;8.680;2023-06-04T13:55:49;26.90;74.30
5689;DHT22;2869;50.432;8.680;2023-06-04T13:58:22;26.80;74.10
5689;DHT22;2869;50.432;8.680;2023-06-04T14:00:49;26.90;79.10
5689;DHT22;2869;50.432;8.680;2023-06-04T14:03:16;27.20;76.80
5689;DHT22;2869;50.432;8.680;2023-06-04T14:05:43;27.40;76.00
5689;DHT22;2869;50.432;8.680;2023-06-04T14:08:09;27.50;74.50
5689;DHT22;2869;50.432;8.680;2023-06-04T14:10:37;27.60;73.70
5689;DHT22;2869;50.432;8.680;2023-06-04T14:13:07;27.20;71.20
5689;DHT22;2869;50.432;8.680;2023-06-04T14:15:34;27.10;72.30
5689;DHT22;2869;50.432;8.680;2023-06-04T14:18:01;27.20;76.10
5689;DHT22;2869;50.432;8.680;2023-06-04T14:20:27;27.40;76.00
5689;DHT22;2869;50.432;8.680;2023-06-04T14:22:54;27.70;74.20
5689;DHT22;2869;50.432;8.680;2023-06-04T14:25:21;27.80;75.80
5689;DHT22;2869;50.432;8.680;2023-06-04T14:27:47;27.90;74.10
5689;DHT22;2869;50.432;8.680;2023-06-04T14:30:16;27.80;75.80
5689;DHT22;2869;50.432;8.680;2023-06-04T14:32:42;27.80;75.50
5689;DHT22;2869;50.432;8.680;2023-06-04T14:35:09;27.70;72.70
5689;DHT22;2869;50.432;8.680;2023-06-04T14:37:36;27.70;74.70
5689;DHT22;2869;50.432;8.680;2023-06-04T14:40:02;27.60;71.80
5689;DHT22;2869;50.432;8.680;2023-06-04T14:42:30;27.20;73.60
5689;DHT22;2869;50.432;8.680;2023-06-04T14:44:56;27.10;74.70
5689;DHT22;2869;50.432;8.680;2023-06-04T14:47:24;27.20;74.30
5689;DHT22;2869;50.432;8.680;2023-06-04T14:49:51;27.20;72.90
5689;DHT22;2869;50.432;8.680;2023-06-04T14:52:17;27.20;74.10
5689;DHT22;2869;50.432;8.680;2023-06-04T14:54:44;27.20;72.60
5689;DHT22;2869;50.432;8.680;2023-06-04T14:57:11;27.00;74.80
5689;DHT22;2869;50.432;8.680;2023-06-04T14:59:38;26.90;74.10
5689;DHT22;2869;50.432;8.680;2023-06-04T15:02:05;26.80;73.50
5689;DHT22;2869;50.432;8.680;2023-06-04T15:04:33;26.90;74.60
5689;DHT22;2869;50.432;8.680;2023-06-04T15:06:59;26.90;73.70
5689;DHT22;2869;50.432;8.680;2023-06-04T15:09:26;26.70;74.40
5689;DHT22;2869;50.432;8.680;2023-06-04T15:11:52;26.80;73.20
5689;DHT22;2869;50.432;8.680;2023-06-04T15:14:19;26.80;74.70
5689;DHT22;2869;50.432;8.680;2023-06-04T15:16:46;26.80;75.90
5689;DHT22;2869;50.432;8.680;2023-06-04T15:19:13;26.90;73.20
5689;DHT22;2869;50.432;8.680;2023-06-04T15:21:41;27.10;73.60
5689;DHT22;2869;50.432;8.680;2023-06-04T15:24:09;27.00;72.30
5689;DHT22;2869;50.432;8.680;2023-06-04T15:26:36;27.00;74.00
5689;DHT22;2869;50.432;8.680;2023-06-04T15:29:02;27.10;76.20
5689;DHT22;2869;50.432;8.680;2023-06-04T15:31:29;27.00;72.90
5689;DHT22;2869;50.432;8.680;2023-06-04T15:33:55;26.90;72.10
5689;DHT22;2869;50.432;8.680;2023-06-04T15:36:22;26.70;70.40
5689;DHT22;2869;50.432;8.680;2023-06-04T15:38:50;26.50;73.90
5689;DHT22;2869;50.432;8.680;2023-06-04T15:41:17;26.30;74.20
5689;DHT22;2869;50.432;8.680;2023-06-04T15:43:46;26.20;73.60
5689;DHT22;2869;50.432;8.680;2023-06-04T15:46:13;26.30;74.00
5689;DHT22;2869;50.432;8.680;2023-06-04T15:48:39;26.30;74.80
5689;DHT22;2869;50.432;8.680;2023-06-04T15:51:06;26.30;72.90
5689;DHT22;2869;50.432;8.680;2023-06-04T15:53:33;26.20;74.00
5689;DHT22;2869;50.432;8.680;2023-06-04T15:56:00;26.20;75.00
5689;DHT22;2869;50.432;8.680;2023-06-04T15:58:27;26.00;72.70
5689;DHT22;2869;50.432;8.680;2023-06-04T16:00:54;25.90;72.60
5689;DHT22;2869;50.432;8.680;2023-06-04T16:03:20;25.90;73.90
5689;DHT22;2869;50.432;8.680;2023-06-04T16:05:47;25.80;74.60